Time;durP1;ratioP1;P1;durP2;ratioP2;P2;SDS_P1;SDS_P2;PMS_P1;PMS_P2;Temp;Humidity;BMP_temperature;BMP_pressure;BME280_temperature;BME280_humidity;BME280_pressure;Samples;Min_cycle;Max_cycle;Signal;HPM_P1;HPM_P2
2021/06/07 00:01:22;;;;;;;0.88;0.60;;;14.10;99.90;;;;;;4965045;28;20129;-72
2021/06/07 00:03:49;;;;;;;2.60;0.98;;;14.00;99.90;;;;;;4968088;28;20647;-67
2021/06/07 00:06:15;;;;;;;2.47;0.77;;;14.00;99.90;;;;;;4967904;28;20106;-68
2021/06/07 00:08:41;;;;;;;0.95;0.57;;;14.00;99.90;;;;;;4967610;28;20141;-68
2021/06/07 00:11:07;;;;;;;1.38;0.60;;;13.90;99.90;;;;;;4968294;28;20038;-68
2021/06/07 00:13:34;;;;;;;7.47;0.70;;;13.90;99.90;;;;;;4967749;28;20031;-68
2021/06/07 00:16:01;;;;;;;1.90;1.00;;;13.90;99.90;;;;;;4966627;28;20062;-68
2021/06/07 00:18:27;;;;;;;1.55;0.77;;;13.80;99.90;;;;;;4967373;28;20042;-68
2021/06/07 00:21:15;;;;;;;3.17;0.80;;;13.80;99.90;;;;;;4968333;28;20039;-67
2021/06/07 00:23:42;;;;;;;2.10;1.00;;;13.70;99.90;;;;;;4967804;28;20124;-68
2021/06/07 00:26:08;;;;;;;2.75;0.82;;;13.70;99.90;;;;;;4967916;28;20031;-67
2021/06/07 00:28:35;;;;;;;1.85;0.90;;;13.70;99.90;;;;;;4966934;28;20388;-68
2021/06/07 00:31:01;;;;;;;2.50;0.88;;;13.70;99.90;;;;;;4968003;28;20058;-67
2021/06/07 00:33:27;;;;;;;5.03;0.95;;;13.70;99.90;;;;;;4982735;28;20062;-68
2021/06/07 00:35:53;;;;;;;1.90;0.68;;;13.60;99.90;;;;;;4967694;28;20074;-69
2021/06/07 00:38:19;;;;;;;2.60;0.88;;;13.60;99.90;;;;;;4967516;28;20085;-67
2021/06/07 00:40:45;;;;;;;2.03;1.23;;;13.50;99.90;;;;;;4971492;28;20498;-70
2021/06/07 00:43:11;;;;;;;1.65;0.80;;;13.50;99.90;;;;;;4968318;28;20510;-71
2021/06/07 00:45:37;;;;;;;3.78;0.75;;;13.50;99.90;;;;;;4967323;28;20031;-69
2021/06/07 00:48:05;;;;;;;2.95;1.05;;;13.50;99.90;;;;;;4967551;28;20046;-69
2021/06/07 00:50:36;;;;;;;1.65;0.63;;;13.50;99.90;;;;;;4966673;28;20869;-68
2021/06/07 00:53:05;;;;;;;1.55;0.60;;;13.40;99.90;;;;;;4963510;28;20464;-68
2021/06/07 00:55:48;;;;;;;1.58;0.80;;;13.40;99.90;;;;;;4967120;28;20089;-68
2021/06/07 00:58:16;;;;;;;2.35;0.80;;;13.40;99.90;;;;;;4963990;28;20105;-68
2021/06/07 01:00:42;;;;;;;1.40;0.47;;;13.40;99.90;;;;;;4964556;28;20038;-67
2021/06/07 01:03:10;;;;;;;2.45;0.50;;;13.40;99.90;;;;;;4967382;28;20073;-68
2021/06/07 01:05:36;;;;;;;5.75;0.85;;;13.40;99.90;;;;;;4958265;28;20043;-67
2021/06/07 01:08:04;;;;;;;3.53;0.80;;;13.40;99.90;;;;;;4966952;28;20034;-67
2021/06/07 01:10:30;;;;;;;1.55;0.57;;;13.40;99.90;;;;;;4967307;28;20061;-67
2021/06/07 01:12:55;;;;;;;0.88;0.50;;;13.40;99.90;;;;;;4968064;28;20046;-68
2021/06/07 01:15:21;;;;;;;1.00;0.68;;;13.40;99.90;;;;;;4974257;28;20035;-68
2021/06/07 01:17:48;;;;;;;1.27;0.70;;;13.30;99.90;;;;;;4975789;28;20999;-68
2021/06/07 01:20:18;;;;;;;2.53;1.52;;;13.20;99.90;;;;;;4975651;28;20094;-67
2021/06/07 01:22:44;;;;;;;1.92;0.95;;;13.20;99.90;;;;;;4974621;28;20050;-67
2021/06/07 01:25:24;;;;;;;5.20;1.45;;;13.20;99.90;;;;;;4974938;28;20049;-68
2021/06/07 01:27:50;;;;;;;4.88;1.17;;;13.20;99.90;;;;;;4972015;28;20046;-68
2021/06/07 01:30:19;;;;;;;1.52;0.80;;;13.20;99.90;;;;;;4966709;28;20109;-67
2021/06/07 01:32:45;;;;;;;3.13;0.93;;;13.20;99.90;;;;;;4982579;28;20046;-67
2021/06/07 01:35:13;;;;;;;3.50;0.80;;;13.20;99.90;;;;;;4966827;28;20035;-65
2021/06/07 01:37:39;;;;;;;4.25;0.73;;;13.10;99.90;;;;;;4967404;28;20043;-66
2021/06/07 01:40:07;;;;;;;1.23;0.73;;;13.10;99.90;;;;;;4966206;28;20082;-67
2021/06/07 01:42:33;;;;;;;1.38;0.90;;;13.10;99.90;;;;;;4966855;28;20514;-67
2021/06/07 01:44:59;;;;;;;2.45;0.88;;;13.10;99.90;;;;;;4966995;28;20039;-68
2021/06/07 01:47:24;;;;;;;1.85;0.90;;;13.00;99.90;;;;;;4967317;28;20038;-67
2021/06/07 01:49:50;;;;;;;3.63;0.90;;;13.00;99.90;;;;;;4966568;28;20031;-67
2021/06/07 01:52:16;;;;;;;2.60;1.20;;;12.90;99.90;;;;;;4963464;28;20554;-67
2021/06/07 01:54:41;;;;;;;2.00;1.00;;;13.00;99.90;;;;;;4967501;28;20034;-67
2021/06/07 01:57:07;;;;;;;4.20;1.20;;;12.90;99.90;;;;;;4966706;28;20098;-65
2021/06/07 01:59:33;;;;;;;4.93;1.30;;;12.90;99.90;;;;;;4959606;28;20043;-65
2021/06/07 02:01:59;;;;;;;7.40;1.15;;;12.90;99.90;;;;;;4964492;28;20062;-67
2021/06/07 02:04:24;;;;;;;5.18;1.60;;;12.90;99.90;;;;;;4966289;28;20431;-67
2021/06/07 02:06:50;;;;;;;1.60;1.30;;;12.80;99.90;;;;;;4968948;28;20443;-67
2021/06/07 02:09:16;;;;;;;3.03;1.63;;;12.80;99.90;;;;;;4970006;28;20042;-67
2021/06/07 02:11:41;;;;;;;2.15;1.10;;;12.80;99.90;;;;;;4970136;28;20030;-67
2021/06/07 02:14:08;;;;;;;1.95;1.17;;;12.80;99.90;;;;;;4970161;28;20047;-67
2021/06/07 02:16:37;;;;;;;3.25;1.52;;;12.80;99.90;;;;;;4970482;28;20059;-67
2021/06/07 02:19:06;;;;;;;4.72;1.70;;;12.70;99.90;;;;;;4966773;28;20490;-67
2021/06/07 02:21:32;;;;;;;2.75;1.58;;;12.70;99.90;;;;;;4965682;28;20043;-65
2021/06/07 02:23:59;;;;;;;2.15;1.33;;;12.70;99.90;;;;;;4970088;28;20034;-67
2021/06/07 02:26:26;;;;;;;2.85;1.48;;;12.60;99.90;;;;;;4970103;28;20453;-66
2021/06/07 02:29:12;;;;;;;2.63;1.58;;;12.60;99.90;;;;;;4970817;28;20039;-65
2021/06/07 02:31:38;;;;;;;3.38;1.65;;;12.60;99.90;;;;;;4967997;28;20675;-67
2021/06/07 02:34:08;;;;;;;2.35;1.50;;;12.60;99.90;;;;;;4971373;28;20102;-65
2021/06/07 02:36:37;;;;;;;2.20;1.13;;;12.60;99.90;;;;;;4967297;28;20038;-67
2021/06/07 02:39:09;;;;;;;2.05;1.20;;;12.50;99.90;;;;;;4970841;28;20042;-66
2021/06/07 02:41:36;;;;;;;3.28;1.60;;;12.50;99.90;;;;;;4966880;28;20046;-67
2021/06/07 02:44:02;;;;;;;2.10;1.00;;;12.50;99.90;;;;;;4967876;28;20035;-67
2021/06/07 02:46:28;;;;;;;1.52;1.23;;;12.50;99.90;;;;;;4970561;28;20372;-66
2021/06/07 02:48:53;;;;;;;3.15;1.48;;;12.50;99.90;;;;;;4971917;28;20038;-67
2021/06/07 02:51:19;;;;;;;4.45;1.60;;;12.50;99.90;;;;;;4978059;28;20034;-68
2021/06/07 02:53:46;;;;;;;1.88;1.35;;;12.40;99.90;;;;;;4985022;28;20114;-67
2021/06/07 02:56:12;;;;;;;3.67;1.50;;;12.40;99.90;;;;;;4979022;28;20027;-66
2021/06/07 02:58:37;;;;;;;1.95;1.27;;;12.40;99.90;;;;;;4968912;28;20066;-68
2021/06/07 03:01:10;;;;;;;2.13;1.45;;;12.40;99.90;;;;;;4968414;28;20424;-64
2021/06/07 03:03:37;;;;;;;3.08;1.73;;;12.40;99.90;;;;;;4966271;28;20039;-67
2021/06/07 03:06:03;;;;;;;4.45;2.42;;;12.30;99.90;;;;;;4970321;28;20042;-65
2021/06/07 03:08:31;;;;;;;2.55;1.90;;;12.30;99.90;;;;;;4969918;28;20142;-67
2021/06/07 03:11:00;;;;;;;2.53;1.60;;;12.30;99.90;;;;;;4970692;28;20483;-67
2021/06/07 03:13:26;;;;;;;4.60;2.28;;;12.30;99.90;;;;;;4969860;28;20480;-67
2021/06/07 03:15:54;;;;;;;3.95;1.67;;;12.30;99.90;;;;;;4970240;28;20030;-66
2021/06/07 03:18:21;;;;;;;5.38;1.75;;;12.20;99.90;;;;;;4969091;28;20035;-67
2021/06/07 03:20:47;;;;;;;3.67;1.77;;;12.20;99.90;;;;;;4970043;28;20070;-66
2021/06/07 03:23:19;;;;;;;3.47;1.80;;;12.20;99.90;;;;;;4968821;28;20042;-67
2021/06/07 03:25:47;;;;;;;3.00;2.50;;;12.20;99.90;;;;;;4970152;28;20039;-67
2021/06/07 03:28:14;;;;;;;5.28;2.20;;;12.20;99.90;;;;;;4969558;28;20093;-67
2021/06/07 03:30:40;;;;;;;3.15;1.85;;;12.20;99.90;;;;;;4969889;28;20495;-66
2021/06/07 03:33:08;;;;;;;2.97;1.90;;;12.20;99.90;;;;;;4984875;28;20043;-67
2021/06/07 03:35:34;;;;;;;5.15;2.33;;;12.20;99.90;;;;;;4968530;28;20035;-67
2021/06/07 03:38:00;;;;;;;4.03;2.08;;;12.20;99.90;;;;;;4969942;28;20178;-66
2021/06/07 03:40:31;;;;;;;7.18;2.50;;;12.30;99.90;;;;;;4970294;28;20493;-66
2021/06/07 03:42:57;;;;;;;;;;;12.30;99.90;;;;;;4969499;28;20390;-67
2021/06/07 03:45:23;;;;;;;5.60;2.13;;;12.30;99.90;;;;;;4969886;28;20379;-66
2021/06/07 03:47:49;;;;;;;5.70;2.63;;;12.30;99.90;;;;;;4968837;28;20046;-65
2021/06/07 03:50:19;;;;;;;3.20;1.92;;;12.20;99.90;;;;;;4969850;28;20520;-66
2021/06/07 03:52:45;;;;;;;4.28;2.47;;;12.20;99.90;;;;;;4965664;28;20488;-67
2021/06/07 03:55:13;;;;;;;5.80;2.08;;;12.20;99.90;;;;;;4969744;28;20034;-66
2021/06/07 03:57:39;;;;;;;4.43;2.28;;;12.20;99.90;;;;;;4968686;28;20042;-66
2021/06/07 04:00:07;;;;;;;7.90;2.10;;;12.20;99.90;;;;;;4968823;28;20035;-67
2021/06/07 04:02:33;;;;;;;5.95;2.28;;;12.20;99.90;;;;;;4962675;28;20038;-65
2021/06/07 04:04:59;;;;;;;3.75;2.10;;;12.10;99.90;;;;;;4968067;28;20058;-67
2021/06/07 04:07:24;;;;;;;3.33;2.20;;;12.10;99.90;;;;;;4969167;28;20061;-66
2021/06/07 04:09:50;;;;;;;4.20;2.20;;;12.10;99.90;;;;;;4968936;28;20070;-67
2021/06/07 04:12:15;;;;;;;5.88;2.03;;;12.10;99.90;;;;;;4969400;28;20058;-67
2021/06/07 04:14:41;;;;;;;5.68;2.10;;;12.10;99.90;;;;;;4969768;28;20034;-67
2021/06/07 04:17:07;;;;;;;4.63;3.00;;;12.10;99.90;;;;;;4968687;28;20305;-67
2021/06/07 04:19:33;;;;;;;3.88;2.45;;;12.20;99.90;;;;;;4968706;28;20093;-67
2021/06/07 04:21:58;;;;;;;3.45;2.42;;;12.20;99.90;;;;;;4968591;28;20635;-65
2021/06/07 04:24:24;;;;;;;4.38;2.20;;;12.20;99.90;;;;;;4969474;28;20026;-66
2021/06/07 04:26:49;;;;;;;4.80;2.22;;;12.20;99.90;;;;;;4966868;28;20043;-68
2021/06/07 04:29:15;;;;;;;6.18;2.53;;;12.30;99.90;;;;;;4966130;28;20063;-66
2021/06/07 04:31:40;;;;;;;5.35;2.83;;;12.20;99.90;;;;;;4968641;28;20038;-66
2021/06/07 04:34:06;;;;;;;6.63;2.25;;;12.30;99.90;;;;;;4968499;28;20193;-67
2021/06/07 04:36:32;;;;;;;4.13;2.08;;;12.30;99.90;;;;;;4968411;28;20052;-67
2021/06/07 04:38:57;;;;;;;6.25;2.33;;;12.30;99.90;;;;;;4968159;28;20050;-64
2021/06/07 04:41:23;;;;;;;3.95;2.30;;;12.40;99.90;;;;;;4968574;28;20055;-67
2021/06/07 04:43:48;;;;;;;3.30;2.13;;;12.50;99.90;;;;;;4968419;28;20041;-66
2021/06/07 04:46:14;;;;;;;4.47;2.47;;;12.50;99.90;;;;;;4977986;28;20034;-67
2021/06/07 04:48:40;;;;;;;3.83;2.30;;;12.60;99.90;;;;;;4974543;28;20045;-65
2021/06/07 04:51:06;;;;;;;5.07;2.45;;;12.70;99.90;;;;;;4967798;28;20491;-66
2021/06/07 04:53:31;;;;;;;3.78;2.25;;;12.70;99.90;;;;;;4983660;28;20089;-67
2021/06/07 04:55:57;;;;;;;8.27;2.00;;;12.70;99.90;;;;;;4971096;28;20065;-67
2021/06/07 04:58:27;;;;;;;3.70;2.05;;;12.80;99.90;;;;;;4969372;28;20368;-65
2021/06/07 05:01:08;;;;;;;4.50;1.88;;;12.80;99.90;;;;;;4953521;28;20131;-67
2021/06/07 05:03:34;;;;;;;5.65;2.40;;;12.90;99.90;;;;;;4961154;28;20517;-67
2021/06/07 05:06:01;;;;;;;5.70;2.05;;;12.90;99.90;;;;;;4973493;28;20502;-67
2021/06/07 05:08:28;;;;;;;3.28;2.20;;;12.90;99.90;;;;;;4964814;28;20042;-67
2021/06/07 05:10:55;;;;;;;4.35;2.25;;;13.00;99.90;;;;;;4966809;28;20498;-67
2021/06/07 05:13:21;;;;;;;5.10;1.85;;;13.10;99.90;;;;;;4962984;28;20649;-67
2021/06/07 05:15:47;;;;;;;3.25;2.00;;;13.20;99.90;;;;;;4974473;28;20030;-66
2021/06/07 05:18:13;;;;;;;3.10;1.90;;;13.20;99.90;;;;;;4965208;28;20035;-67
2021/06/07 05:20:39;;;;;;;2.35;1.88;;;13.30;99.90;;;;;;4972789;28;20041;-67
2021/06/07 05:23:05;;;;;;;2.15;0.98;;;13.40;99.90;;;;;;4973575;28;20049;-67
2021/06/07 05:25:32;;;;;;;2.22;0.70;;;13.40;99.90;;;;;;4966599;28;20038;-67
2021/06/07 05:27:59;;;;;;;4.75;1.08;;;13.60;99.90;;;;;;4964710;28;20102;-64
2021/06/07 05:30:28;;;;;;;3.10;1.02;;;13.80;99.90;;;;;;4970283;28;20256;-67
2021/06/07 05:32:54;;;;;;;3.53;0.65;;;14.20;99.90;;;;;;4963546;28;20494;-65
2021/06/07 05:35:21;;;;;;;1.15;0.50;;;14.60;99.90;;;;;;4964638;28;20043;-68
2021/06/07 05:37:47;;;;;;;1.42;0.60;;;15.10;99.90;;;;;;4962749;28;20093;-64
2021/06/07 05:40:15;;;;;;;1.75;0.68;;;15.40;99.90;;;;;;4967153;28;20035;-67
2021/06/07 05:42:41;;;;;;;2.22;0.43;;;15.80;99.90;;;;;;4969120;28;20038;-64
2021/06/07 05:45:09;;;;;;;1.95;0.50;;;16.10;99.90;;;;;;4967343;28;20062;-65
2021/06/07 05:47:36;;;;;;;0.35;0.22;;;16.40;99.90;;;;;;4966057;28;20499;-67
2021/06/07 05:50:03;;;;;;;2.55;0.47;;;16.60;99.90;;;;;;4967264;28;20196;-69
2021/06/07 05:52:28;;;;;;;2.08;0.50;;;16.80;99.90;;;;;;4968108;28;20035;-64
2021/06/07 05:54:54;;;;;;;1.42;0.35;;;17.00;99.90;;;;;;4973256;28;20108;-66
2021/06/07 05:57:19;;;;;;;1.50;0.43;;;17.20;99.90;;;;;;4970244;28;20050;-67
2021/06/07 05:59:45;;;;;;;2.25;0.30;;;17.40;99.90;;;;;;4967305;28;20772;-68
2021/06/07 06:02:11;;;;;;;0.90;0.20;;;17.60;99.90;;;;;;4966300;28;20126;-68
2021/06/07 06:04:37;;;;;;;1.00;0.30;;;17.80;99.90;;;;;;4969446;28;20676;-68
2021/06/07 06:07:04;;;;;;;1.30;0.40;;;17.90;99.90;;;;;;4969404;28;20133;-67
2021/06/07 06:09:30;;;;;;;2.67;0.40;;;18.10;99.90;;;;;;4970684;28;20483;-68
2021/06/07 06:11:57;;;;;;;0.60;0.20;;;18.40;99.90;;;;;;4972925;28;20046;-68
2021/06/07 06:14:23;;;;;;;4.18;0.98;;;18.70;99.90;;;;;;4971654;28;20080;-69
2021/06/07 06:16:48;;;;;;;2.38;0.30;;;19.10;99.90;;;;;;4970081;28;20053;-70
2021/06/07 06:19:14;;;;;;;3.50;0.65;;;19.60;99.90;;;;;;4966769;28;20414;-69
2021/06/07 06:21:40;;;;;;;4.93;0.95;;;20.10;99.60;;;;;;4971857;28;20042;-66
2021/06/07 06:24:08;;;;;;;1.15;0.25;;;20.60;97.90;;;;;;4974011;28;20031;-69
2021/06/07 06:26:34;;;;;;;3.00;0.25;;;21.40;95.90;;;;;;4972190;28;20117;-68
2021/06/07 06:29:00;;;;;;;1.20;0.28;;;21.80;96.10;;;;;;4969071;28;20038;-70
2021/06/07 06:31:26;;;;;;;7.55;0.52;;;22.20;93.10;;;;;;4968288;28;20042;-69
2021/06/07 06:33:51;;;;;;;3.85;0.63;;;22.50;93.20;;;;;;4971948;28;20027;-67
2021/06/07 06:36:17;;;;;;;2.63;0.50;;;23.20;90.30;;;;;;4969081;28;20067;-68
2021/06/07 06:38:43;;;;;;;3.33;0.10;;;23.30;84.60;;;;;;4964963;28;20538;-67
2021/06/07 06:41:08;;;;;;;1.73;0.38;;;23.80;88.60;;;;;;4967959;28;19925;-67
2021/06/07 06:43:34;;;;;;;2.22;0.25;;;25.40;81.20;;;;;;4969343;28;20490;-67
2021/06/07 06:46:00;;;;;;;3.70;0.60;;;26.60;74.80;;;;;;4963923;28;20035;-68
2021/06/07 06:48:28;;;;;;;3.55;0.65;;;27.60;72.60;;;;;;4969060;28;20062;-67
2021/06/07 06:50:54;;;;;;;2.50;0.95;;;29.00;63.80;;;;;;4970521;28;20027;-67
2021/06/07 06:53:20;;;;;;;5.40;0.90;;;29.80;58.20;;;;;;4966990;28;20046;-68
2021/06/07 06:55:48;;;;;;;2.58;0.70;;;29.80;56.30;;;;;;4967532;28;20074;-68
2021/06/07 06:58:14;;;;;;;3.25;0.65;;;30.50;54.50;;;;;;4969389;28;20041;-69
2021/06/07 07:00:40;;;;;;;2.08;0.80;;;30.90;52.50;;;;;;4963287;28;20047;-71
2021/06/07 07:03:07;;;;;;;4.10;0.60;;;31.00;50.90;;;;;;4965947;28;20388;-69
2021/06/07 07:05:34;;;;;;;1.90;0.47;;;31.10;50.50;;;;;;4968147;28;20078;-68
2021/06/07 07:08:00;;;;;;;2.42;0.80;;;31.10;49.40;;;;;;4963025;28;20499;-67
2021/06/07 07:10:26;;;;;;;2.97;0.60;;;31.10;49.50;;;;;;4968778;28;20170;-69
2021/06/07 07:12:52;;;;;;;2.55;0.85;;;30.80;49.60;;;;;;4964058;28;20133;-70
2021/06/07 07:15:18;;;;;;;5.70;0.90;;;31.10;49.40;;;;;;4970855;28;20125;-68
2021/06/07 07:17:45;;;;;;;3.88;0.85;;;31.50;47.90;;;;;;4963649;28;20042;-69
2021/06/07 07:20:11;;;;;;;1.25;0.60;;;31.70;49.10;;;;;;4967987;28;20057;-70
2021/06/07 07:22:37;;;;;;;4.70;0.82;;;32.20;46.10;;;;;;4969037;28;20046;-69
2021/06/07 07:25:04;;;;;;;2.90;0.60;;;31.60;47.40;;;;;;4969594;28;20054;-67
2021/06/07 07:27:29;;;;;;;2.25;0.68;;;32.00;47.40;;;;;;4955405;28;20076;-68
2021/06/07 07:29:56;;;;;;;2.60;0.90;;;32.10;46.40;;;;;;4967837;28;20459;-68
2021/06/07 07:32:25;;;;;;;2.85;0.70;;;32.70;45.00;;;;;;4964102;28;20039;-68
2021/06/07 07:34:51;;;;;;;2.10;0.63;;;33.10;44.60;;;;;;4967789;28;20043;-69
2021/06/07 07:37:16;;;;;;;2.80;0.80;;;33.20;43.60;;;;;;4971412;28;20042;-69
2021/06/07 07:39:42;;;;;;;6.72;1.20;;;32.80;44.00;;;;;;4966793;28;20062;-69
2021/06/07 07:42:08;;;;;;;2.58;1.00;;;32.90;43.30;;;;;;4970248;28;20045;-69
2021/06/07 07:44:34;;;;;;;4.25;0.68;;;32.90;42.70;;;;;;4967782;28;20478;-70
2021/06/07 07:47:02;;;;;;;1.88;0.75;;;31.90;43.50;;;;;;4972541;28;20108;-71
2021/06/07 07:49:27;;;;;;;2.58;0.90;;;32.60;44.10;;;;;;4967176;28;20039;-67
2021/06/07 07:51:53;;;;;;;1.65;0.77;;;32.20;44.40;;;;;;4964383;28;20041;-67
2021/06/07 07:54:18;;;;;;;2.85;0.85;;;32.10;44.80;;;;;;4966661;28;20479;-70
2021/06/07 07:56:44;;;;;;;6.80;1.02;;;32.40;43.40;;;;;;4959902;28;20031;-71
2021/06/07 07:59:10;;;;;;;3.38;0.90;;;32.90;43.10;;;;;;4966031;28;20414;-69
2021/06/07 08:01:36;;;;;;;2.50;0.65;;;33.20;44.00;;;;;;4962564;28;20537;-71
2021/06/07 08:04:02;;;;;;;2.60;1.00;;;33.30;43.50;;;;;;4962345;28;20039;-70
2021/06/07 08:06:28;;;;;;;5.10;1.10;;;33.50;42.90;;;;;;4972987;28;20062;-67
2021/06/07 08:08:54;;;;;;;2.30;1.00;;;33.10;43.30;;;;;;4967519;28;20034;-68
2021/06/07 08:11:20;;;;;;;2.75;1.10;;;33.00;43.20;;;;;;4965381;28;20524;-69
2021/06/07 08:13:47;;;;;;;6.47;1.10;;;33.40;43.40;;;;;;4959753;28;20449;-69
2021/06/07 08:16:12;;;;;;;3.15;0.90;;;32.50;44.20;;;;;;4963094;28;20491;-69
2021/06/07 08:18:38;;;;;;;2.15;1.13;;;33.30;43.70;;;;;;4962108;28;20062;-68
2021/06/07 08:21:04;;;;;;;1.67;0.98;;;33.40;43.20;;;;;;4963269;28;20402;-68
2021/06/07 08:23:29;;;;;;;3.22;1.48;;;33.20;43.80;;;;;;4965245;28;20707;-69
2021/06/07 08:25:55;;;;;;;4.85;1.42;;;33.50;43.40;;;;;;4966179;28;20038;-69
2021/06/07 08:28:20;;;;;;;5.03;1.42;;;32.90;43.90;;;;;;4967370;28;20035;-68
2021/06/07 08:30:46;;;;;;;4.68;1.17;;;33.00;44.20;;;;;;4962469;28;20569;-68
2021/06/07 08:33:12;;;;;;;3.15;1.40;;;32.90;43.80;;;;;;4962834;28;20097;-70
2021/06/07 08:35:38;;;;;;;3.45;1.55;;;32.70;44.20;;;;;;4967979;28;20038;-66
2021/06/07 08:38:04;;;;;;;4.13;1.33;;;32.10;45.30;;;;;;4964581;28;20178;-68
2021/06/07 08:40:31;;;;;;;5.38;1.40;;;31.30;45.30;;;;;;4968241;28;20122;-70
2021/06/07 08:42:57;;;;;;;2.22;1.00;;;31.40;46.20;;;;;;4967785;28;20152;-70
2021/06/07 08:45:24;;;;;;;4.70;1.45;;;31.90;45.30;;;;;;4967948;28;20043;-70
2021/06/07 08:47:52;;;;;;;2.70;1.17;;;31.70;45.20;;;;;;4961591;28;20088;-67
2021/06/07 08:50:29;;;;;;;4.00;0.98;;;31.60;45.50;;;;;;4960253;28;20042;-67
2021/06/07 08:52:56;;;;;;;4.32;1.10;;;31.10;46.30;;;;;;4962916;28;20050;-68
2021/06/07 08:55:23;;;;;;;1.73;0.47;;;30.90;46.20;;;;;;4958306;28;20039;-72
2021/06/07 08:57:52;;;;;;;3.20;0.80;;;30.50;44.70;;;;;;4954595;28;20039;-68
2021/06/07 09:00:21;;;;;;;2.25;0.80;;;30.00;44.40;;;;;;4958661;28;20043;-68
2021/06/07 09:02:47;;;;;;;3.70;0.60;;;29.70;45.20;;;;;;4959977;28;20495;-69
2021/06/07 09:05:14;;;;;;;4.00;0.77;;;29.50;45.90;;;;;;4963095;28;20038;-69
2021/06/07 09:07:54;;;;;;;2.58;0.47;;;29.40;45.70;;;;;;4961127;28;20049;-68
2021/06/07 09:10:20;;;;;;;2.50;0.65;;;29.00;46.40;;;;;;4956405;28;20046;-69
2021/06/07 09:12:51;;;;;;;1.20;0.50;;;28.70;46.00;;;;;;4961538;28;20039;-68
2021/06/07 09:15:25;;;;;;;0.60;0.20;;;28.40;46.60;;;;;;4958160;28;20411;-69
2021/06/07 09:17:51;;;;;;;4.00;0.35;;;28.20;47.40;;;;;;4954864;28;20043;-69
2021/06/07 09:20:19;;;;;;;1.20;0.30;;;28.10;47.00;;;;;;4963009;28;21645;-69
2021/06/07 09:23:10;;;;;;;3.70;0.45;;;27.80;46.90;;;;;;4961036;28;20031;-69
2021/06/07 09:25:39;;;;;;;1.35;0.35;;;27.40;48.00;;;;;;4959729;28;20050;-69
2021/06/07 09:28:09;;;;;;;2.22;0.40;;;27.10;49.10;;;;;;4957454;28;20035;-69
2021/06/07 09:30:48;;;;;;;2.75;0.50;;;27.00;48.60;;;;;;4958104;28;20038;-69
2021/06/07 09:33:39;;;;;;;1.73;0.75;;;26.60;48.00;;;;;;4958172;28;20034;-68
2021/06/07 09:36:18;;;;;;;1.55;0.52;;;26.40;49.80;;;;;;4954940;28;20363;-69
2021/06/07 09:39:10;;;;;;;0.90;0.35;;;26.20;49.60;;;;;;4960293;28;20629;-67
2021/06/07 09:41:54;;;;;;;1.30;0.35;;;26.40;51.10;;;;;;4955586;28;20038;-68
2021/06/07 09:44:27;;;;;;;2.17;0.57;;;26.20;50.00;;;;;;4960279;28;20602;-69
2021/06/07 09:47:24;;;;;;;6.45;0.88;;;26.20;50.30;;;;;;4960571;28;20035;-69
2021/06/07 09:49:58;;;;;;;0.98;0.20;;;26.10;50.00;;;;;;4958753;28;20027;-69
2021/06/07 09:52:27;;;;;;;1.23;0.45;;;26.10;51.10;;;;;;4958765;28;20703;-69
2021/06/07 09:55:10;;;;;;;1.80;0.47;;;26.00;51.10;;;;;;4962703;28;20425;-68
2021/06/07 09:57:41;;;;;;;6.45;0.75;;;26.00;50.60;;;;;;4957979;28;20055;-69
2021/06/07 10:00:08;;;;;;;2.55;0.73;;;25.80;52.40;;;;;;4955841;28;20062;-68
2021/06/07 10:02:37;;;;;;;2.58;0.73;;;25.80;51.40;;;;;;4965313;28;20130;-68
2021/06/07 10:05:04;;;;;;;1.08;0.40;;;25.70;51.80;;;;;;4966969;28;20035;-69
2021/06/07 10:07:30;;;;;;;1.95;0.50;;;25.30;51.30;;;;;;4964835;28;20126;-70
2021/06/07 10:10:13;;;;;;;3.67;0.70;;;25.40;52.60;;;;;;4964620;28;20487;-70
2021/06/07 10:12:41;;;;;;;1.25;0.32;;;25.10;51.90;;;;;;4968260;28;20502;-69
2021/06/07 10:15:09;;;;;;;3.75;0.40;;;25.20;52.80;;;;;;4965836;28;20466;-70
2021/06/07 10:17:35;;;;;;;2.60;0.45;;;25.20;52.50;;;;;;4965819;28;20105;-69
2021/06/07 10:22:38;;;;;;;4.35;1.10;;;25.50;53.70;;;;;;4965881;28;20053;-69
2021/06/07 10:25:09;;;;;;;0.85;0.40;;;25.50;53.50;;;;;;4962626;28;20181;-67
2021/06/07 10:27:35;;;;;;;1.23;0.57;;;25.40;54.00;;;;;;4963790;28;20724;-69
2021/06/07 10:30:03;;;;;;;3.10;0.43;;;25.50;55.10;;;;;;4965010;28;20046;-70
2021/06/07 10:32:29;;;;;;;3.13;0.50;;;25.60;53.60;;;;;;4966703;28;20039;-68
2021/06/07 10:35:02;;;;;;;0.98;0.30;;;25.60;53.20;;;;;;4971462;28;20042;-69
2021/06/07 10:37:31;;;;;;;0.40;0.20;;;25.50;53.80;;;;;;4971666;28;20043;-69
2021/06/07 10:40:15;;;;;;;0.93;0.50;;;25.50;54.60;;;;;;4970062;28;20429;-69
2021/06/07 10:42:57;;;;;;;1.90;0.60;;;25.30;54.00;;;;;;4965583;28;20053;-69
2021/06/07 10:45:29;;;;;;;3.58;0.73;;;25.30;54.40;;;;;;4973746;28;20066;-69
2021/06/07 10:47:56;;;;;;;2.50;0.50;;;25.30;55.00;;;;;;4970715;28;20475;-68
2021/06/07 10:50:25;;;;;;;2.40;0.63;;;25.30;53.70;;;;;;4969337;28;20035;-68
2021/06/07 10:52:54;;;;;;;1.60;0.70;;;25.30;54.10;;;;;;4960261;28;20117;-70
2021/06/07 10:55:24;;;;;;;5.25;0.80;;;25.30;54.10;;;;;;4967397;28;20087;-68
2021/06/07 10:57:50;;;;;;;2.92;0.63;;;25.20;54.70;;;;;;4969379;28;20423;-69
2021/06/07 11:00:32;;;;;;;4.50;0.57;;;25.10;54.40;;;;;;4965592;28;20435;-69
2021/06/07 11:03:01;;;;;;;7.07;0.95;;;25.00;54.80;;;;;;4968457;28;20420;-69
2021/06/07 11:05:33;;;;;;;2.67;0.50;;;24.70;54.70;;;;;;4974272;28;20077;-69
2021/06/07 11:08:05;;;;;;;4.35;0.68;;;24.80;55.60;;;;;;4964824;28;20043;-70
2021/06/07 11:10:30;;;;;;;7.97;0.85;;;25.00;55.50;;;;;;4968086;28;20035;-69
2021/06/07 11:13:18;;;;;;;2.92;1.25;;;25.10;56.20;;;;;;4974391;28;20431;-70
2021/06/07 11:15:56;;;;;;;2.65;0.50;;;25.10;56.80;;;;;;4969598;28;20046;-70
2021/06/07 11:18:37;;;;;;;3.17;0.60;;;25.20;56.50;;;;;;4967472;28;20438;-68
2021/06/07 11:21:09;;;;;;;2.00;0.40;;;25.30;56.60;;;;;;4968191;28;20039;-70
2021/06/07 11:23:39;;;;;;;1.05;0.45;;;25.20;56.70;;;;;;4966281;28;20042;-68
2021/06/07 11:26:08;;;;;;;6.07;0.65;;;25.20;56.90;;;;;;4969337;28;20070;-70
2021/06/07 11:28:38;;;;;;;6.47;0.70;;;25.10;56.70;;;;;;4968810;28;20372;-70
2021/06/07 11:31:06;;;;;;;1.23;0.70;;;25.00;55.70;;;;;;4955862;28;20039;-70
2021/06/07 11:34:08;;;;;;;0.82;0.50;;;25.00;56.90;;;;;;4967008;28;20400;-69
2021/06/07 11:36:49;;;;;;;9.63;0.70;;;24.70;57.60;;;;;;4963331;28;20089;-68
2021/06/07 11:39:26;;;;;;;1.27;0.70;;;24.70;58.50;;;;;;4970327;28;20046;-68
2021/06/07 11:42:00;;;;;;;1.90;0.43;;;24.80;58.60;;;;;;4973838;28;20041;-68
2021/06/07 11:44:44;;;;;;;6.07;0.70;;;24.80;57.40;;;;;;4972377;28;20413;-66
2021/06/07 11:47:11;;;;;;;1.63;0.30;;;24.80;57.50;;;;;;4967313;28;20042;-70
2021/06/07 11:49:57;;;;;;;2.33;0.50;;;24.80;57.20;;;;;;4969164;28;20098;-69
2021/06/07 11:52:31;;;;;;;4.85;0.40;;;24.70;56.30;;;;;;4967508;28;20061;-68
2021/06/07 11:54:58;;;;;;;1.90;0.45;;;24.70;57.10;;;;;;4970293;28;20510;-66
2021/06/07 11:57:24;;;;;;;1.92;0.30;;;24.70;57.40;;;;;;4966168;28;20038;-67
2021/06/07 11:59:58;;;;;;;1.42;0.75;;;24.60;56.80;;;;;;4965114;28;20042;-66
2021/06/07 12:02:25;;;;;;;2.28;0.45;;;24.60;56.50;;;;;;4964397;28;20500;-67
2021/06/07 12:04:51;;;;;;;2.60;0.50;;;24.50;57.70;;;;;;4970806;28;20042;-70
2021/06/07 12:07:18;;;;;;;1.17;0.32;;;24.60;57.60;;;;;;4967585;28;20510;-67
2021/06/07 12:09:53;;;;;;;5.35;0.77;;;24.50;57.60;;;;;;4967324;28;20054;-70
2021/06/07 12:12:20;;;;;;;4.57;0.68;;;24.50;57.10;;;;;;4981529;28;20506;-69
2021/06/07 12:14:47;;;;;;;4.00;0.75;;;24.40;58.10;;;;;;4969056;28;20042;-68
2021/06/07 12:17:19;;;;;;;0.60;0.40;;;24.40;57.70;;;;;;4961942;28;20030;-69
2021/06/07 12:19:53;;;;;;;1.67;0.57;;;24.40;58.20;;;;;;4961772;28;20047;-67
2021/06/07 12:22:33;;;;;;;1.58;0.40;;;24.20;57.20;;;;;;4958740;28;20034;-70
2021/06/07 12:25:28;;;;;;;0.90;0.43;;;24.30;58.70;;;;;;4967541;28;20042;-69
2021/06/07 12:28:23;;;;;;;4.88;1.10;;;24.30;57.40;;;;;;4977780;28;20170;-69
2021/06/07 12:30:57;;;;;;;1.35;0.68;;;24.40;56.90;;;;;;4964127;28;20039;-69
2021/06/07 12:33:34;;;;;;;1.27;0.65;;;24.20;55.20;;;;;;4964633;28;20039;-69
2021/06/07 12:36:01;;;;;;;2.50;0.60;;;24.10;57.50;;;;;;4964204;28;20505;-70
2021/06/07 12:38:27;;;;;;;2.08;0.50;;;24.20;57.70;;;;;;4965007;28;20039;-70
2021/06/07 12:40:55;;;;;;;4.45;0.82;;;24.10;57.10;;;;;;4967609;28;20044;-68
2021/06/07 12:43:25;;;;;;;2.00;0.45;;;24.10;57.30;;;;;;4970761;28;20092;-70
2021/06/07 12:46:07;;;;;;;3.53;0.75;;;24.10;57.30;;;;;;4963431;28;20038;-70
2021/06/07 12:48:41;;;;;;;1.23;0.40;;;24.00;56.20;;;;;;4960309;28;20089;-68
2021/06/07 12:51:10;;;;;;;2.75;0.50;;;24.00;56.70;;;;;;4965170;28;20185;-70
2021/06/07 12:53:40;;;;;;;4.75;1.15;;;24.00;57.30;;;;;;4966633;28;20337;-68
2021/06/07 12:56:16;;;;;;;4.60;0.38;;;24.00;56.80;;;;;;4958388;28;20634;-68
2021/06/07 12:58:47;;;;;;;2.15;0.70;;;24.10;58.10;;;;;;4959154;28;20096;-70